KMMI

Details ICAO KMMI (MMI)
Name MC MINN CO
Region United States
Timezone America/New_York (UTC-5.0)
Plans Departing 6
Arriving 4
Stats Elevation 858 ft / 262 m (AMSL)
Location 35.397309° -84.562583°
Runways 1
Magnetic Variation 5.250° W
Sunrise 2017-12-18 12:43:17 UTC / 2017-12-18 07:43:17 Local
Sunset 2017-12-18 22:29:22 UTC / 2017-12-18 17:29:22 Local
Advertisement - Login to hide

Runways

ID Width Length Bearing (true) Bearing (mag) Surface Threshold Offset Overrun Length
02 75 ft / 23 m 5,010 ft / 1,527 m 18.52° 23.77° Asphalt 0 ft / 0 m 0 ft / 0 m
20 75 ft / 23 m 5,010 ft / 1,527 m 198.52° 203.77° Asphalt 300 ft / 91 m 0 ft / 0 m

Map

Weather


0- 5 10 15 20 25 30 35+ Temperature / ° C

Clouds and Precipitation
Forecast for 2017-12-18 18:00 UTC. Updated 2 hours ago

Ground ~20,000 ft ~40,000 ft Winds

METAR

KMMI 181435Z AUTO 00000KT M1/4SM OVC001 06/06 A3021 RMK

TAF

Not found

Frequencies

Recorded 125.42 MHz AWOS 3
Approach 123.90 MHz KNOXVILLE APP/DEP
Unicom 122.80 MHz CTAF/UNICOM
Warning: Do not use this data for real-world aviation or navigation. No guarantee of current accuracy is given.